Delano, MN (55328)

10:49 PM CDT on October 22, 2014 (GMT -0500)
DrewKat | Change Station
CLOSE
Current Station
Personal Weather Station
Location: Delano, MN
Elevation: 988 ft
Nearby Weather Stations

Elev 988 ft 45.00 °N, 93.86 °W | Updated 12 minutes ago

Mostly Cloudy
Mostly Cloudy
56.7 °F
Feels Like 56.7 °F
N
14.0
Wind Variable Wind from SSW

Today
High -- | Low -- °F
--% Chance of Precip.
Yesterday
High -- | Low -- °F
Precip. -- in
7:40 AM 6:18 PM
Waning Crescent, 1% visible
Pressure 30.02 in
Visibility 10.0 miles
Clouds Scattered Clouds 4300 ft
Scattered Clouds 8000 ft
Overcast 11000 ft
Dew Point 51 °F
Humidity 80%
Rainfall 0.11 in
Snow Depth Not available.
UV 0 out of 12
Pollen .10 out of 12
Ozone Good
PM2.5 Good
Flu Activity Sporadic
METAR KCFE 230335Z AUTO 15006KT 10SM SCT043 SCT080 OVC110 13/05 A3002 RMK AO2 T01320052

More Conditions Fewer Conditions

Pressure 30.02 in
Visibility 10.0 miles
Clouds Scattered Clouds 4300 ft
Scattered Clouds 8000 ft
Overcast 11000 ft
Dew Point 51 °F
Humidity 80%
Rainfall 0.11 in
Snow Depth Not available.
UV 0 out of 12
Pollen .10 out of 12
Ozone Good
PM2.5 Good
Flu Activity Sporadic
METAR KCFE 230335Z AUTO 15006KT 10SM SCT043 SCT080 OVC110 13/05 A3002 RMK AO2 T01320052

More Conditions Fewer Conditions

Nowcast | as of 10:15 PM CDT on October 22, 2014

Scattered light showers or sprinkles will continue to be observed over much of southern Minnesota into the midnight hour. The area in question will be east of a line from...Alexandria...to Redwood Falls...and west of a line...from Mora to Bloomington to Wells. Total precipitation prior to midnight...from this activity moving northeast at 30 mph...will vary from a trace...to near one tenth of an inch. Light rainfall or sprinkles will end west of a line ...From Little Falls to St James by 1130 PM.

×

10-Day Weather Forecast

Almanac

Astronomy

Oct. 22, 2014 Rise Set
Actual Time 7:40 AM CDT 6:18 PM CDT
Civil Twilight 7:10 AM CDT 6:48 PM CDT
Nautical Twilight 6:36 AM CDT 7:22 PM CDT
Astronomical Twilight 6:02 AM CDT 7:56 PM CDT
Moon 6:19 AM CDT (10/22) 5:47 PM CDT (10/22)
Length of Visible Light 11h 38m
Length of Day
10h 38m
Tomorrow will be 2m 58s shorter.
Waning Crescent, 1% of the Moon is Illuminated
Today
Waning Crescent
Oct 23
New
Oct 30
First Quarter
Nov 6
Full
Nov 14
Last Quarter

Today's Extremes

State Highs State Lows

Community

WunderPhotos

Upload Photos

1,764,130 photos uploaded!

Nearby

Air Quality

  Air Quality AQ Index Pollutant
Yesterday Good
PM2.5
Yesterday Good
OZONE
Current Good
PM2.5
Current Good
OZONE
Wednesday Good
PM2.5
Thursday Good
PM2.5
Friday Good
PM2.5
Saturday Good
PM2.5
Sunday Moderate
PM2.5
Monday Moderate
PM2.5

Snow Depth

Station Depth Elevation
No new snow has been reported.

Earthquake Activity

City Distance Mag. Time & Date
No recent earthquake activity has been reported nearby.
Minimum magnitude displayed is 2.5.

Coastal Water Temperatures

Place Temperature
No Stations Reporting

Nearby Weather Stations